Time;durP1;ratioP1;P1;durP2;ratioP2;P2;SDS_P1;SDS_P2;PMS_P1;PMS_P2;Temp;Humidity;BMP_temperature;BMP_pressure;BME280_temperature;BME280_humidity;BME280_pressure;Samples;Min_cycle;Max_cycle;Signal;HPM_P1;HPM_P2
2023/09/30 00:00:27;;;;;;;3.22;1.13;;;;;;;20.72;51.66;102459.81;16123852;19;130910;-60
2023/09/30 00:05:49;;;;;;;4.28;1.10;;;;;;;20.70;51.54;102471.16;16113806;19;130719;-59
2023/09/30 00:11:14;;;;;;;2.95;0.90;;;;;;;20.71;51.66;102460.88;16121844;19;129967;-60
2023/09/30 00:16:36;;;;;;;3.15;0.90;;;;;;;20.68;51.88;102445.50;16120153;19;130796;-60
2023/09/30 00:22:00;;;;;;;4.68;1.25;;;;;;;20.69;51.87;102449.13;16119754;19;130825;-60
2023/09/30 00:27:22;;;;;;;2.35;0.95;;;;;;;20.69;51.37;102457.47;16116602;19;129398;-59
2023/09/30 00:32:44;;;;;;;5.43;0.93;;;;;;;20.69;51.55;102465.81;16118821;19;129480;-60
2023/09/30 00:38:06;;;;;;;1.67;0.90;;;;;;;20.67;51.26;102459.66;16119100;19;130317;-60
2023/09/30 00:43:28;;;;;;;3.05;1.30;;;;;;;20.67;51.54;102465.22;16119492;19;133122;-60
2023/09/30 00:48:50;;;;;;;2.42;0.80;;;;;;;20.66;51.44;102480.19;16119910;19;130100;-59
2023/09/30 00:54:13;;;;;;;2.20;0.80;;;;;;;20.65;51.70;102464.56;16122349;19;129617;-59
2023/09/30 00:59:36;;;;;;;4.15;1.08;;;;;;;20.64;51.21;102462.88;16113815;19;130944;-60
2023/09/30 01:04:58;;;;;;;1.48;0.80;;;;;;;20.62;51.56;102490.03;16121346;19;130580;-59
2023/09/30 01:10:20;;;;;;;1.10;0.93;;;;;;;20.62;51.38;102490.88;16120072;19;131429;-60
2023/09/30 01:15:42;;;;;;;1.88;0.88;;;;;;;20.62;51.24;102501.16;16113458;19;130256;-59
2023/09/30 01:21:06;;;;;;;4.68;0.82;;;;;;;20.62;51.38;102485.31;16108664;19;129652;-60
2023/09/30 01:26:28;;;;;;;4.70;0.47;;;;;;;20.60;51.34;102488.34;16103051;19;130118;-60
2023/09/30 01:31:50;;;;;;;3.88;1.05;;;;;;;20.59;51.44;102474.66;16117043;19;130495;-60
2023/09/30 01:37:13;;;;;;;2.50;0.95;;;;;;;20.58;51.20;102493.25;16112655;19;131242;-59
2023/09/30 01:42:35;;;;;;;1.30;0.75;;;;;;;20.56;51.49;102489.84;16109277;19;130126;-60
2023/09/30 01:47:57;;;;;;;2.00;0.73;;;;;;;20.56;51.56;102498.19;16113110;19;132107;-60
2023/09/30 01:53:19;;;;;;;2.50;0.70;;;;;;;20.56;51.27;102497.34;16111768;19;129944;-60
2023/09/30 01:58:41;;;;;;;1.52;0.52;;;;;;;20.55;51.50;102507.63;16109285;19;130595;-60
2023/09/30 02:04:03;;;;;;;1.75;0.80;;;;;;;20.55;51.19;102478.94;16110724;19;129749;-59
2023/09/30 02:09:25;;;;;;;4.10;0.80;;;;;;;20.54;51.31;102505.03;16110118;19;130753;-59
2023/09/30 02:14:47;;;;;;;1.95;0.70;;;;;;;20.54;51.29;102502.25;16110635;19;130325;-60
2023/09/30 02:20:12;;;;;;;4.90;0.90;;;;;;;20.53;51.41;102503.34;16109691;19;129540;-60
2023/09/30 02:25:34;;;;;;;3.08;0.70;;;;;;;20.51;51.48;102506.34;16109049;19;130640;-59
2023/09/30 02:30:57;;;;;;;2.22;0.80;;;;;;;20.50;51.55;102507.41;16110433;19;130208;-61
2023/09/30 02:36:19;;;;;;;1.42;0.63;;;;;;;20.49;51.31;102491.81;16113217;19;131023;-60
2023/09/30 02:41:41;;;;;;;2.05;0.70;;;;;;;20.48;51.23;102501.22;16123673;19;129520;-60
2023/09/30 02:47:04;;;;;;;1.10;0.60;;;;;;;20.49;51.44;102508.50;16130322;19;129816;-60
2023/09/30 02:52:28;;;;;;;1.77;0.80;;;;;;;20.47;51.42;102518.97;16119416;19;129448;-60
2023/09/30 02:57:50;;;;;;;1.10;0.60;;;;;;;20.48;50.98;102505.94;16114662;19;131612;-57
2023/09/30 03:03:12;;;;;;;3.28;1.20;;;;;;;20.47;51.00;102485.63;16121036;19;131215;-59
2023/09/30 03:08:35;;;;;;;2.17;0.73;;;;;;;20.47;50.82;102498.69;16121967;19;129954;-60
2023/09/30 03:13:58;;;;;;;1.98;0.70;;;;;;;20.47;51.12;102487.56;16119646;19;131592;-59
2023/09/30 03:19:20;;;;;;;2.53;0.85;;;;;;;20.46;50.70;102478.34;16121656;19;129733;-59
2023/09/30 03:24:42;;;;;;;1.15;0.73;;;;;;;20.45;50.96;102477.50;16119734;19;131380;-59
2023/09/30 03:30:05;;;;;;;1.55;0.57;;;;;;;20.46;51.11;102478.34;16116011;19;129981;-61
2023/09/30 03:35:29;;;;;;;1.95;0.40;;;;;;;20.45;51.11;102496.09;16118472;19;133430;-58
2023/09/30 03:40:53;;;;;;;0.85;0.50;;;;;;;20.43;51.17;102488.00;16117849;19;130660;-58
2023/09/30 03:46:18;;;;;;;1.15;0.60;;;;;;;20.44;50.93;102480.47;16110159;19;129810;-58
2023/09/30 03:51:41;;;;;;;1.15;0.70;;;;;;;20.43;51.09;102481.59;16116087;19;130797;-63
2023/09/30 03:57:03;;;;;;;3.15;0.50;;;;;;;20.42;50.65;102488.22;16121973;19;130148;-66
2023/09/30 04:02:27;;;;;;;1.67;0.70;;;;;;;20.42;50.65;102491.00;16113548;19;130511;-65
2023/09/30 04:07:49;;;;;;;1.35;0.70;;;;;;;20.41;50.83;102492.06;16119449;19;131913;-59
2023/09/30 04:13:14;;;;;;;0.88;0.57;;;;;;;20.40;50.63;102482.03;16121635;19;131098;-59
2023/09/30 04:18:36;;;;;;;0.70;0.50;;;;;;;20.40;51.10;102476.47;16117602;19;131000;-59
2023/09/30 04:23:58;;;;;;;2.67;0.60;;;;;;;20.38;50.88;102476.66;16117144;19;129552;-59
2023/09/30 04:29:20;;;;;;;1.42;0.75;;;;;;;20.37;50.91;102480.50;16116264;19;130048;-59
2023/09/30 04:34:43;;;;;;;0.75;0.60;;;;;;;20.37;51.04;102474.13;16117255;19;131016;-58
2023/09/30 04:40:19;;;;;;;1.30;0.55;;;;;;;20.36;51.11;102470.50;16112400;19;130514;-59
2023/09/30 04:45:42;;;;;;;0.90;0.60;;;;;;;20.36;51.12;102469.63;16114407;19;129621;-59
2023/09/30 04:51:08;;;;;;;1.13;0.50;;;;;;;20.36;50.58;102486.31;16114028;19;130540;-59
2023/09/30 04:56:31;;;;;;;3.17;0.70;;;;;;;20.33;50.94;102497.84;16114871;19;129878;-59
2023/09/30 05:01:53;;;;;;;3.88;1.00;;;;;;;20.33;50.98;102504.28;16119389;19;130171;-59
2023/09/30 05:07:15;;;;;;;2.47;0.93;;;;;;;20.32;50.82;102480.34;16111211;19;131443;-59
2023/09/30 05:12:37;;;;;;;4.03;0.82;;;;;;;20.32;51.00;102496.16;16112834;19;129469;-59
2023/09/30 05:18:00;;;;;;;5.05;0.70;;;;;;;20.31;51.01;102497.25;16111708;19;130031;-59
2023/09/30 05:23:22;;;;;;;4.03;0.90;;;;;;;20.28;50.75;102496.59;16112095;19;129313;-59
2023/09/30 05:28:44;;;;;;;2.60;0.90;;;;;;;20.29;50.91;102503.88;16112150;19;129553;-60
2023/09/30 05:34:07;;;;;;;1.00;0.50;;;;;;;20.28;50.63;102507.72;16112942;19;130685;-60
2023/09/30 05:39:30;;;;;;;1.65;0.80;;;;;;;20.25;50.76;102497.03;16114126;19;130098;-59
2023/09/30 05:44:53;;;;;;;2.25;0.90;;;;;;;20.25;50.50;102522.06;16110767;19;131441;-61
2023/09/30 05:50:16;;;;;;;2.70;0.80;;;;;;;20.24;50.94;102511.16;16110400;19;130766;-59
2023/09/30 05:55:38;;;;;;;2.25;0.60;;;;;;;20.24;50.77;102533.41;16111025;19;131365;-59
2023/09/30 06:01:00;;;;;;;3.17;0.80;;;;;;;20.23;50.74;102542.81;16110320;19;130807;-59
2023/09/30 06:06:23;;;;;;;3.33;0.70;;;;;;;20.23;50.93;102532.53;16111293;19;131097;-59
2023/09/30 06:11:45;;;;;;;1.98;0.73;;;;;;;20.26;50.60;102515.41;16121264;19;130370;-59
2023/09/30 06:17:08;;;;;;;1.50;0.65;;;;;;;20.27;50.96;102506.00;16128056;19;129629;-59
2023/09/30 06:22:30;;;;;;;1.58;0.80;;;;;;;20.26;50.43;102515.41;16120886;19;131701;-65
2023/09/30 06:27:57;;;;;;;2.30;0.60;;;;;;;20.29;50.54;102526.09;16126329;19;130727;-61
2023/09/30 06:33:20;;;;;;;2.83;0.85;;;;;;;20.33;50.29;102531.22;16124650;19;130375;-60
2023/09/30 06:38:48;;;;;;;4.20;1.15;;;;;;;20.37;50.32;102538.03;16124692;19;129989;-60
2023/09/30 06:44:10;;;;;;;1.60;0.82;;;;;;;20.38;50.34;102550.88;16126588;19;130295;-60
2023/09/30 06:49:35;;;;;;;1.17;0.90;;;;;;;20.43;50.02;102548.31;16116360;19;130718;-60
2023/09/30 06:54:57;;;;;;;1.80;0.70;;;;;;;20.46;50.32;102556.19;16120259;19;129677;-60
2023/09/30 07:00:19;;;;;;;3.20;0.90;;;;;;;20.49;50.17;102580.78;16120235;19;132906;-60
2023/09/30 07:05:42;;;;;;;2.85;0.85;;;;;;;20.52;49.96;102608.16;16120126;19;130570;-61
2023/09/30 07:11:05;;;;;;;5.10;0.70;;;;;;;20.54;49.59;102605.13;16123886;19;129597;-59
2023/09/30 07:16:27;;;;;;;1.38;0.93;;;;;;;20.57;49.57;102611.09;16123092;19;129469;-60
2023/09/30 07:21:49;;;;;;;1.75;0.90;;;;;;;20.59;49.39;102611.75;16119914;19;129637;-60
2023/09/30 07:27:25;;;;;;;2.88;0.85;;;;;;;20.60;49.65;102599.56;16122082;19;130559;-60
2023/09/30 07:32:50;;;;;;;1.30;0.80;;;;;;;20.65;49.65;102603.63;16122846;19;129860;-59
2023/09/30 07:38:12;;;;;;;3.65;1.08;;;;;;;20.68;49.26;102617.06;16124399;19;129597;-59
2023/09/30 07:43:34;;;;;;;4.03;1.00;;;;;;;20.72;49.24;102629.47;16121336;19;129694;-59
2023/09/30 07:48:58;;;;;;;1.88;0.80;;;;;;;20.77;49.47;102626.91;16123660;19;129664;-59
2023/09/30 07:54:21;;;;;;;2.40;0.80;;;;;;;20.81;48.99;102616.19;16125483;19;129743;-60
2023/09/30 07:59:52;;;;;;;1.63;0.70;;;;;;;20.87;49.06;102599.47;16124196;19;129429;-60
2023/09/30 08:05:14;;;;;;;1.83;0.77;;;;;;;21.20;48.21;102609.56;16122903;19;129789;-60
2023/09/30 08:10:36;;;;;;;4.60;0.90;;;;;;;22.48;45.88;102602.97;16118842;19;131467;-59
2023/09/30 08:15:59;;;;;;;3.00;0.85;;;;;;;24.74;41.97;102611.91;16120385;19;131103;-60
2023/09/30 08:21:21;;;;;;;3.63;1.13;;;;;;;26.14;39.10;102604.13;16118406;19;130156;-60
2023/09/30 08:26:43;;;;;;;1.15;0.90;;;;;;;26.45;38.34;102606.53;16108717;19;131160;-60
2023/09/30 08:32:07;;;;;;;3.67;1.00;;;;;;;25.06;40.18;102608.66;16119528;19;129508;-60
2023/09/30 08:37:29;;;;;;;3.15;1.15;;;;;;;24.06;41.71;102601.13;16117037;19;131118;-60
2023/09/30 08:42:52;;;;;;;5.30;0.90;;;;;;;23.34;43.05;102593.72;16116216;19;129061;-59
2023/09/30 08:48:16;;;;;;;4.20;1.25;;;;;;;22.84;44.10;102606.00;16111971;19;129724;-60
2023/09/30 08:53:39;;;;;;;2.15;1.00;;;;;;;22.47;44.75;102601.28;16110597;19;131624;-59
2023/09/30 08:59:03;;;;;;;4.68;1.10;;;;;;;22.23;45.39;102603.03;16116176;19;129791;-59
2023/09/30 09:04:25;;;;;;;4.47;1.27;;;;;;;22.05;45.62;102599.09;16112374;19;129607;-59
2023/09/30 09:10:05;;;;;;;5.15;1.58;;;;;;;21.91;46.31;102603.13;16116953;19;130646;-59
2023/09/30 09:15:28;;;;;;;4.90;1.67;;;;;;;21.79;46.11;102616.91;16112824;19;130366;-59
2023/09/30 09:21:09;;;;;;;6.97;1.67;;;;;;;21.72;46.55;102630.91;16116312;19;130768;-59
2023/09/30 09:26:34;;;;;;;4.28;1.65;;;;;;;21.62;46.37;102644.47;16113066;19;131095;-59
2023/09/30 09:32:24;;;;;;;5.00;1.92;;;;;;;21.56;46.64;102645.38;16113112;19;130004;-58
2023/09/30 09:38:07;;;;;;;7.28;1.90;;;;;;;21.50;47.11;102650.78;16112760;19;130516;-59
2023/09/30 09:43:33;;;;;;;6.72;1.73;;;;;;;21.45;47.01;102646.94;16110833;19;129900;-58
2023/09/30 09:48:57;;;;;;;8.90;1.90;;;;;;;21.39;47.33;102651.47;16111028;19;130061;-56
2023/09/30 09:54:21;;;;;;;6.25;1.83;;;;;;;21.36;47.52;102646.31;16108726;19;130965;-58
2023/09/30 09:59:47;;;;;;;6.35;2.30;;;;;;;21.30;47.35;102644.41;16110540;19;129644;-58
2023/09/30 10:05:11;;;;;;;5.32;1.83;;;;;;;21.27;47.65;102654.06;16111102;19;130821;-58
2023/09/30 10:10:37;;;;;;;6.80;2.00;;;;;;;21.24;47.74;102654.50;16113265;19;131523;-58
2023/09/30 10:15:59;;;;;;;6.60;2.00;;;;;;;21.19;48.13;102649.63;16110159;19;130303;-59
2023/09/30 10:21:21;;;;;;;6.38;1.98;;;;;;;21.16;48.10;102655.66;16109784;19;131149;-58
2023/09/30 10:26:43;;;;;;;5.43;1.67;;;;;;;21.14;48.18;102655.00;16102814;19;129792;-53
2023/09/30 10:32:05;;;;;;;7.60;1.92;;;;;;;21.10;48.26;102650.97;16112803;19;130338;-55
2023/09/30 10:37:28;;;;;;;4.63;2.00;;;;;;;21.09;48.02;102646.47;16109560;19;129419;-56
2023/09/30 10:42:51;;;;;;;4.05;1.90;;;;;;;21.04;47.96;102633.22;16106594;19;129673;-55
2023/09/30 10:48:25;;;;;;;6.07;2.00;;;;;;;21.06;48.40;102628.28;16111374;19;133380;-55
2023/09/30 10:53:52;;;;;;;5.93;2.13;;;;;;;21.03;48.13;102619.53;16107056;19;130644;-55
2023/09/30 10:59:25;;;;;;;5.82;1.80;;;;;;;21.00;48.11;102618.03;16113923;19;131863;-55
2023/09/30 11:04:47;;;;;;;8.63;2.15;;;;;;;20.97;48.21;102606.50;16122260;19;130748;-55
2023/09/30 11:10:11;;;;;;;5.57;1.88;;;;;;;20.93;48.56;102603.31;16123637;19;131208;-56
2023/09/30 11:15:33;;;;;;;4.15;2.20;;;;;;;20.93;48.58;102608.88;16121675;19;130987;-55
2023/09/30 11:21:15;;;;;;;8.00;2.22;;;;;;;20.96;48.31;102585.31;16124682;19;130340;-51
2023/09/30 11:26:37;;;;;;;6.22;2.22;;;;;;;20.93;48.05;102588.53;16116068;19;130805;-54
2023/09/30 11:32:02;;;;;;;4.88;2.08;;;;;;;20.92;48.18;102595.19;16123684;19;130326;-52
2023/09/30 11:37:31;;;;;;;6.60;1.92;;;;;;;20.94;48.10;102601.38;16120092;19;129752;-54
2023/09/30 11:43:11;;;;;;;5.85;2.10;;;;;;;20.93;48.46;102596.88;16119546;19;129941;-54
2023/09/30 11:48:38;;;;;;;4.15;1.88;;;;;;;20.91;48.52;102580.41;16115888;19;129880;-54
2023/09/30 11:54:01;;;;;;;10.40;2.30;;;;;;;20.90;48.08;102570.38;16117379;19;130287;-55
2023/09/30 11:59:23;;;;;;;4.13;1.95;;;;;;;20.90;48.43;102567.59;16108402;19;130649;-53
2023/09/30 12:04:49;;;;;;;6.53;1.60;;;;;;;20.89;48.26;102563.97;16115332;19;130673;-56
2023/09/30 12:10:14;;;;;;;3.72;1.70;;;;;;;20.88;48.36;102553.91;16119516;19;129857;-53
2023/09/30 12:15:36;;;;;;;;;;;;;;;20.87;48.40;102549.41;16118674;19;130974;-55
2023/09/30 12:20:59;;;;;;;4.68;2.22;;;;;;;20.88;48.25;102551.13;16123553;19;130923;-52
2023/09/30 12:26:21;;;;;;;5.70;2.10;;;;;;;20.87;48.10;102546.63;16119952;19;130889;-54
2023/09/30 12:31:45;;;;;;;5.38;1.70;;;;;;;20.88;47.90;102551.13;16117129;19;130629;-54
2023/09/30 12:37:15;;;;;;;5.55;2.00;;;;;;;20.87;48.42;102537.41;16119506;19;129765;-55
2023/09/30 12:42:37;;;;;;;6.68;2.30;;;;;;;20.88;48.12;102544.69;16117755;19;133532;-52
2023/09/30 12:47:59;;;;;;;4.50;1.90;;;;;;;20.87;48.40;102540.19;16120278;19;129886;-52
2023/09/30 12:53:21;;;;;;;6.15;2.00;;;;;;;20.90;48.07;102545.31;16109868;19;130474;-55
2023/09/30 12:58:44;;;;;;;5.13;1.70;;;;;;;20.90;48.25;102532.28;16113161;19;131323;-52
2023/09/30 13:04:08;;;;;;;4.45;1.80;;;;;;;20.90;48.22;102526.72;16110401;19;131110;-53
2023/09/30 13:09:30;;;;;;;3.97;1.70;;;;;;;20.92;48.12;102511.75;16113881;19;129597;-52
2023/09/30 13:14:55;;;;;;;3.50;1.83;;;;;;;20.94;48.21;102520.69;16114213;19;131686;-52
2023/09/30 13:20:18;;;;;;;4.68;2.05;;;;;;;20.94;48.44;102538.25;16110999;19;131080;-52
2023/09/30 13:25:40;;;;;;;5.40;2.22;;;;;;;20.93;47.91;102525.41;16110680;19;130676;-54
2023/09/30 13:31:02;;;;;;;4.80;2.10;;;;;;;20.90;48.25;102504.47;16116329;19;129749;-49
2023/09/30 13:36:24;;;;;;;5.50;1.88;;;;;;;20.90;48.08;102493.34;16107051;19;130965;-49
2023/09/30 13:41:49;;;;;;;6.15;2.25;;;;;;;20.90;48.50;102489.69;16113959;19;130906;-48
2023/09/30 13:47:11;;;;;;;4.85;1.85;;;;;;;20.89;48.22;102490.75;16105298;19;130534;-51
2023/09/30 13:52:35;;;;;;;5.88;2.05;;;;;;;20.88;48.51;102498.28;16110783;19;129584;-51
2023/09/30 13:57:57;;;;;;;4.95;1.88;;;;;;;20.88;48.50;102501.06;16108970;19;130224;-50
2023/09/30 14:03:20;;;;;;;3.42;1.75;;;;;;;20.88;48.37;102491.84;16104849;19;130266;-50
2023/09/30 14:08:45;;;;;;;2.92;1.60;;;;;;;20.86;48.41;102503.19;16103214;19;131288;-48
2023/09/30 14:14:09;;;;;;;4.47;1.67;;;;;;;20.86;48.15;102496.78;16107501;19;131233;-53
2023/09/30 14:19:31;;;;;;;2.65;1.50;;;;;;;20.86;48.51;102480.09;16105022;19;130950;-50
2023/09/30 14:24:56;;;;;;;5.20;1.80;;;;;;;20.85;48.33;102462.53;16108101;19;130520;-52
2023/09/30 14:30:19;;;;;;;6.32;1.95;;;;;;;20.84;48.23;102452.50;16104969;19;129639;-53
2023/09/30 14:35:43;;;;;;;3.53;1.70;;;;;;;20.84;48.26;102441.38;16119089;19;130939;-53
2023/09/30 14:41:09;;;;;;;5.13;2.22;;;;;;;20.85;48.32;102451.41;16120065;19;131436;-51
2023/09/30 14:46:31;;;;;;;4.07;1.77;;;;;;;20.83;48.36;102431.31;16121623;19;129782;-54
2023/09/30 14:51:53;;;;;;;3.65;1.52;;;;;;;20.84;48.26;102416.34;16119253;19;131078;-53
2023/09/30 14:57:17;;;;;;;5.32;1.83;;;;;;;20.83;48.16;102425.75;16122009;19;131035;-53
2023/09/30 15:02:40;;;;;;;4.63;1.70;;;;;;;20.82;48.27;102426.81;16116039;19;130026;-52
2023/09/30 15:08:02;;;;;;;3.92;1.55;;;;;;;20.82;48.30;102437.94;16121119;19;130874;-51
2023/09/30 15:13:25;;;;;;;4.75;1.45;;;;;;;20.82;48.54;102434.34;16119562;19;129528;-51
2023/09/30 15:18:48;;;;;;;5.97;1.40;;;;;;;20.79;48.27;102430.06;16122713;19;129424;-51
2023/09/30 15:24:10;;;;;;;5.72;1.60;;;;;;;20.79;48.54;102443.13;16123932;19;130086;-52
2023/09/30 15:29:32;;;;;;;2.95;1.50;;;;;;;20.77;48.72;102446.13;16118661;19;129998;-49
2023/09/30 15:34:54;;;;;;;4.88;1.73;;;;;;;20.77;48.41;102454.47;16118229;19;130938;-51
2023/09/30 15:40:17;;;;;;;3.47;1.55;;;;;;;20.74;48.46;102444.59;16120684;19;131668;-53
2023/09/30 15:45:39;;;;;;;4.70;2.03;;;;;;;20.73;48.25;102423.47;16118096;19;130478;-54
2023/09/30 15:51:01;;;;;;;3.85;1.42;;;;;;;20.73;48.28;102419.81;16115763;19;130466;-54
2023/09/30 15:56:23;;;;;;;4.20;1.30;;;;;;;20.74;48.28;102415.94;16122143;19;130025;-53
2023/09/30 16:01:45;;;;;;;4.38;1.95;;;;;;;20.73;48.11;102422.59;16116368;19;131154;-55
2023/09/30 16:07:08;;;;;;;5.03;1.80;;;;;;;20.73;48.43;102419.81;16121078;19;130277;-53
2023/09/30 16:12:30;;;;;;;5.45;2.10;;;;;;;20.71;48.56;102430.28;16116067;19;129411;-54
2023/09/30 16:17:52;;;;;;;7.75;2.05;;;;;;;20.71;48.12;102417.25;16116498;19;129775;-51
2023/09/30 16:23:15;;;;;;;15.80;2.35;;;;;;;20.75;47.60;102410.19;16114544;19;129795;-47
2023/09/30 16:28:36;;;;;;;12.13;2.33;;;;;;;20.79;47.68;102424.50;16112294;19;129850;-54
2023/09/30 16:33:59;;;;;;;9.43;2.08;;;;;;;20.80;47.34;102428.13;16104740;19;131095;-55
2023/09/30 16:39:22;;;;;;;14.73;3.03;;;;;;;20.81;47.56;102430.69;16119933;19;132123;-49
2023/09/30 16:44:44;;;;;;;13.00;1.90;;;;;;;20.83;47.58;102425.75;16112263;19;130064;-50
2023/09/30 16:50:07;;;;;;;14.75;2.80;;;;;;;20.83;47.38;102430.47;16113441;19;129755;-57
2023/09/30 16:55:30;;;;;;;12.60;2.08;;;;;;;20.83;47.50;102414.63;16111294;19;130133;-60
2023/09/30 17:00:52;;;;;;;17.88;2.50;;;;;;;20.82;47.68;102418.47;16111227;19;130274;-61
2023/09/30 17:06:14;;;;;;;24.45;3.38;;;;;;;20.81;47.33;102427.91;16114239;19;130592;-60
2023/09/30 17:11:36;;;;;;;15.00;3.40;;;;;;;20.80;47.45;102425.34;16116328;19;130049;-60
2023/09/30 17:16:59;;;;;;;20.33;4.22;;;;;;;20.80;47.62;102431.75;16112702;19;129400;-60
2023/09/30 17:22:21;;;;;;;21.42;4.20;;;;;;;20.80;47.58;102426.19;16112190;19;129661;-61
2023/09/30 17:27:43;;;;;;;18.85;4.20;;;;;;;20.81;47.98;102438.19;16117711;19;129948;-60
2023/09/30 17:33:05;;;;;;;12.15;3.95;;;;;;;20.81;47.93;102432.63;16113214;19;130785;-60
2023/09/30 17:38:28;;;;;;;15.80;4.20;;;;;;;20.80;48.14;102428.13;16112264;19;130870;-61
2023/09/30 17:43:50;;;;;;;17.98;4.13;;;;;;;20.80;48.19;102444.81;16116357;19;129712;-60
2023/09/30 17:49:12;;;;;;;15.32;3.53;;;;;;;20.77;48.05;102446.13;16111605;19;130090;-61
2023/09/30 17:54:34;;;;;;;13.55;3.40;;;;;;;20.75;48.12;102435.22;16111486;19;131352;-58
2023/09/30 17:59:56;;;;;;;17.33;3.75;;;;;;;20.74;48.37;102444.59;16111434;19;131543;-59
2023/09/30 18:05:18;;;;;;;15.73;4.00;;;;;;;20.73;48.11;102437.34;16113915;19;131171;-58
2023/09/30 18:10:42;;;;;;;14.88;3.72;;;;;;;20.73;48.00;102433.72;16123133;19;131058;-60
2023/09/30 18:16:06;;;;;;;17.80;3.78;;;;;;;20.74;48.10;102432.63;16126915;19;129626;-59
2023/09/30 18:21:29;;;;;;;9.95;2.30;;;;;;;20.72;48.22;102423.66;16123894;19;131244;-59
2023/09/30 18:26:50;;;;;;;9.82;2.85;;;;;;;20.72;47.91;102423.66;16123135;19;130384;-60
2023/09/30 18:32:12;;;;;;;12.73;3.13;;;;;;;20.72;48.03;102423.66;16125579;19;129793;-60
2023/09/30 18:37:35;;;;;;;10.15;2.88;;;;;;;20.71;48.30;102427.50;16124772;19;131124;-60
2023/09/30 18:42:57;;;;;;;9.60;3.25;;;;;;;20.69;48.27;102419.41;16121177;19;130564;-61
2023/09/30 18:48:19;;;;;;;7.10;2.58;;;;;;;20.68;48.43;102419.59;16120997;19;129927;-61
2023/09/30 18:53:41;;;;;;;5.93;2.30;;;;;;;20.67;48.18;102412.38;16128891;19;130423;-60
2023/09/30 18:59:03;;;;;;;10.35;2.78;;;;;;;20.66;48.07;102413.44;16127448;19;131753;-61
2023/09/30 19:04:26;;;;;;;10.30;2.42;;;;;;;20.65;47.89;102403.41;16127353;19;130915;-60
2023/09/30 19:09:48;;;;;;;12.48;3.10;;;;;;;20.65;48.26;102406.19;16133605;19;129414;-61
2023/09/30 19:15:11;;;;;;;11.07;3.08;;;;;;;20.64;48.10;102399.75;16126972;19;131714;-60
2023/09/30 19:20:33;;;;;;;13.70;4.07;;;;;;;20.64;48.08;102399.75;16123603;19;130687;-63
2023/09/30 19:25:55;;;;;;;9.52;3.30;;;;;;;20.64;48.34;102405.31;16122087;19;129596;-64
2023/09/30 19:31:17;;;;;;;13.45;2.88;;;;;;;20.64;48.60;102418.38;16125775;19;132716;-63
2023/09/30 19:36:39;;;;;;;12.48;3.35;;;;;;;20.63;48.44;102413.88;16121464;19;129743;-61
2023/09/30 19:42:01;;;;;;;12.60;3.20;;;;;;;20.59;48.67;102407.94;16120945;19;129432;-69
2023/09/30 19:47:26;;;;;;;28.02;4.03;;;;;;;20.59;48.41;102411.53;16120133;19;130369;-68
2023/09/30 19:52:48;;;;;;;;;;;;;;;20.55;48.76;102413.09;16123831;19;130320;-63
2023/09/30 19:58:10;;;;;;;14.63;3.55;;;;;;;20.56;48.63;102414.78;16125982;19;130661;-64
2023/09/30 20:03:33;;;;;;;17.38;2.63;;;;;;;20.55;48.76;102417.78;16130215;19;131839;-63
2023/09/30 20:08:55;;;;;;;10.23;2.88;;;;;;;20.54;48.62;102425.28;16124802;19;129510;-63
2023/09/30 20:14:17;;;;;;;15.27;4.05;;;;;;;20.53;48.38;102426.34;16124516;19;130419;-63
2023/09/30 20:19:39;;;;;;;13.05;3.22;;;;;;;20.54;48.49;102427.19;16123139;19;129561;-62
2023/09/30 20:25:01;;;;;;;16.27;2.90;;;;;;;20.53;48.91;102426.34;16122866;19;129750;-62
2023/09/30 20:30:25;;;;;;;14.60;3.05;;;;;;;20.52;48.58;102424.66;16125754;19;130387;-62
2023/09/30 20:35:50;;;;;;;15.65;3.17;;;;;;;20.51;48.79;102422.94;16119973;19;129602;-62
2023/09/30 20:41:12;;;;;;;12.90;3.00;;;;;;;20.51;48.81;102422.94;16121329;19;129938;-62
2023/09/30 20:46:35;;;;;;;18.58;3.33;;;;;;;20.49;48.61;102413.97;16116683;19;129864;-63
2023/09/30 20:51:57;;;;;;;10.68;3.13;;;;;;;20.47;49.07;102416.13;16121770;19;129947;-63
2023/09/30 20:57:19;;;;;;;10.32;2.88;;;;;;;20.49;49.05;102413.97;16118797;19;129659;-63
2023/09/30 21:02:41;;;;;;;11.38;2.88;;;;;;;20.48;48.70;102422.53;16118561;19;129431;-62
2023/09/30 21:08:04;;;;;;;11.15;2.63;;;;;;;20.47;48.77;102424.44;16119452;19;130465;-63
2023/09/30 21:13:27;;;;;;;9.68;2.80;;;;;;;20.48;48.74;102428.09;16120267;19;130165;-63
2023/09/30 21:18:49;;;;;;;26.65;4.00;;;;;;;20.47;49.06;102418.88;16122816;19;131000;-62
2023/09/30 21:24:11;;;;;;;27.17;3.55;;;;;;;20.47;48.98;102418.88;16119779;19;129781;-62
2023/09/30 21:29:33;;;;;;;18.75;3.97;;;;;;;20.47;49.20;102418.88;16113453;19;130294;-62
2023/09/30 21:34:55;;;;;;;10.63;3.13;;;;;;;20.49;48.92;102415.91;16118062;19;129675;-62
2023/09/30 21:40:17;;;;;;;18.52;3.40;;;;;;;20.49;49.26;102408.41;16113965;19;129522;-62
2023/09/30 21:45:39;;;;;;;14.52;3.10;;;;;;;20.48;49.03;102406.69;16114615;19;129881;-62
2023/09/30 21:51:02;;;;;;;11.32;2.65;;;;;;;20.48;49.05;102394.75;16114459;19;130971;-62
2023/09/30 21:56:24;;;;;;;16.48;3.20;;;;;;;20.49;49.01;102400.06;16113499;19;131048;-63
2023/09/30 22:01:47;;;;;;;20.60;3.40;;;;;;;20.48;48.78;102398.34;16116084;19;129646;-63
2023/09/30 22:07:09;;;;;;;14.77;3.03;;;;;;;20.49;48.84;102394.50;16114165;19;129571;-63
2023/09/30 22:12:31;;;;;;;14.68;3.08;;;;;;;20.47;49.04;102391.09;16110414;19;129763;-63
2023/09/30 22:17:53;;;;;;;11.25;2.85;;;;;;;20.48;48.83;102409.47;16114329;19;134112;-63
2023/09/30 22:23:15;;;;;;;12.43;3.10;;;;;;;20.48;49.17;102397.53;16112238;19;130719;-63
2023/09/30 22:28:37;;;;;;;14.07;2.90;;;;;;;20.48;48.85;102398.34;16112108;19;131068;-63
2023/09/30 22:33:59;;;;;;;11.13;3.30;;;;;;;20.47;49.05;102402.22;16109755;19;129893;-63
2023/09/30 22:39:21;;;;;;;9.05;2.38;;;;;;;20.47;48.97;102402.22;16109758;19;129563;-63
2023/09/30 22:44:43;;;;;;;9.63;2.78;;;;;;;20.47;49.34;102399.44;16109802;19;129947;-63
2023/09/30 22:50:06;;;;;;;14.15;2.75;;;;;;;20.48;49.28;102405.88;16110830;19;131412;-63
2023/09/30 22:55:28;;;;;;;8.45;3.05;;;;;;;20.47;49.28;102399.44;16127637;19;134223;-63
2023/09/30 23:00:50;;;;;;;6.18;2.42;;;;;;;20.45;48.99;102391.31;16124965;19;131090;-63
2023/09/30 23:06:13;;;;;;;7.13;2.55;;;;;;;20.47;48.93;102393.03;16124770;19;129659;-63
2023/09/30 23:11:35;;;;;;;10.45;2.50;;;;;;;20.46;49.11;102392.16;16125868;19;130395;-62
2023/09/30 23:16:57;;;;;;;12.98;2.78;;;;;;;20.46;48.91;102383.81;16126654;19;129868;-63
2023/09/30 23:22:19;;;;;;;10.68;2.55;;;;;;;20.45;49.13;102363.53;16125161;19;130571;-63
2023/09/30 23:27:43;;;;;;;10.40;2.88;;;;;;;20.45;49.04;102363.53;16122572;19;129395;-63
2023/09/30 23:33:06;;;;;;;11.65;2.53;;;;;;;20.45;49.37;102362.66;16122394;19;130810;-66
2023/09/30 23:38:30;;;;;;;14.13;2.30;;;;;;;20.45;49.19;102357.09;16122641;19;129944;-62
2023/09/30 23:43:53;;;;;;;14.50;2.53;;;;;;;20.44;49.51;102349.84;16128329;19;129383;-62
2023/09/30 23:49:16;;;;;;;3.75;2.00;;;;;;;20.41;49.29;102355.88;16126794;19;129547;-62
2023/09/30 23:54:39;;;;;;;9.40;2.10;;;;;;;20.39;49.06;102358.84;16120983;19;130077;-62
